Time;durP1;ratioP1;P1;durP2;ratioP2;P2;SDS_P1;SDS_P2;PMS_P1;PMS_P2;Temp;Humidity;BMP_temperature;BMP_pressure;BME280_temperature;BME280_humidity;BME280_pressure;Samples;Min_cycle;Max_cycle;Signal;HPM_P1;HPM_P2
2022/08/27 00:00:43;;;;;;;23.85;21.45;;;18.90;99.90;;;;;;4968358;28;20046;-73
2022/08/27 00:03:11;;;;;;;23.08;20.73;;;18.90;99.90;;;;;;4966215;28;20456;-72
2022/08/27 00:05:38;;;;;;;24.73;22.10;;;18.90;99.90;;;;;;4973049;28;20069;-72
2022/08/27 00:08:07;;;;;;;22.35;20.48;;;18.90;99.90;;;;;;4965751;28;20187;-73
2022/08/27 00:10:34;;;;;;;27.77;20.52;;;18.90;99.90;;;;;;4974461;28;20050;-73
2022/08/27 00:13:01;;;;;;;23.80;19.77;;;19.00;99.90;;;;;;4964630;28;20055;-72
2022/08/27 00:15:28;;;;;;;21.73;19.52;;;19.10;99.90;;;;;;4969518;28;20417;-72
2022/08/27 00:17:55;;;;;;;22.50;19.77;;;19.00;99.90;;;;;;4969808;28;20509;-73
2022/08/27 00:20:24;;;;;;;21.52;19.38;;;19.00;99.90;;;;;;4970600;28;20227;-73
2022/08/27 00:22:52;;;;;;;23.50;21.00;;;18.90;99.90;;;;;;4969594;28;20038;-72
2022/08/27 00:25:19;;;;;;;22.95;20.60;;;18.90;99.90;;;;;;4963965;28;20042;-72
2022/08/27 00:27:49;;;;;;;24.15;21.58;;;18.80;99.90;;;;;;4972050;28;20318;-73
2022/08/27 00:30:19;;;;;;;24.00;21.88;;;18.80;99.90;;;;;;4982837;28;20455;-72
2022/08/27 00:32:46;;;;;;;24.02;21.83;;;18.80;99.90;;;;;;4960574;28;20100;-72
2022/08/27 00:35:15;;;;;;;26.17;23.48;;;18.80;99.90;;;;;;4968343;28;20051;-72
2022/08/27 00:37:42;;;;;;;25.50;23.00;;;18.80;99.90;;;;;;4966889;28;20049;-72
2022/08/27 00:40:14;;;;;;;26.30;23.02;;;18.80;99.90;;;;;;4968570;28;20072;-73
2022/08/27 00:42:44;;;;;;;28.23;23.13;;;18.80;99.90;;;;;;4965792;28;20346;-72
2022/08/27 00:45:14;;;;;;;31.63;24.80;;;18.70;99.90;;;;;;4969774;28;20154;-72
2022/08/27 00:47:56;;;;;;;32.58;26.00;;;18.80;99.90;;;;;;4950843;28;20074;-72
2022/08/27 00:50:28;;;;;;;32.08;26.30;;;18.80;99.90;;;;;;4967806;28;20047;-72
2022/08/27 00:53:02;;;;;;;29.50;26.30;;;18.90;99.90;;;;;;4965280;28;20074;-72
2022/08/27 00:55:42;;;;;;;29.27;25.08;;;18.70;99.90;;;;;;4967211;28;20111;-72
2022/08/27 00:58:21;;;;;;;29.77;25.42;;;18.70;99.90;;;;;;4969866;28;20489;-72
2022/08/27 01:00:49;;;;;;;27.90;25.10;;;18.80;99.90;;;;;;4966293;28;20576;-72
2022/08/27 01:03:16;;;;;;;32.28;25.45;;;18.70;99.90;;;;;;4955589;28;20583;-73
2022/08/27 01:05:46;;;;;;;32.17;25.40;;;18.70;99.90;;;;;;4964757;28;20579;-72
2022/08/27 01:08:18;;;;;;;28.73;25.02;;;18.80;99.90;;;;;;4964827;28;20055;-73
2022/08/27 01:10:46;;;;;;;28.48;25.45;;;18.70;99.90;;;;;;4970167;28;20038;-73
2022/08/27 01:13:16;;;;;;;25.77;23.45;;;18.80;99.90;;;;;;4962332;28;20054;-73
2022/08/27 01:15:43;;;;;;;29.63;25.80;;;18.80;99.90;;;;;;4969953;28;20513;-72
2022/08/27 01:18:12;;;;;;;30.77;25.88;;;18.80;99.90;;;;;;4966183;28;20398;-73
2022/08/27 01:20:55;;;;;;;29.67;24.30;;;18.80;99.90;;;;;;4959516;28;20141;-72
2022/08/27 01:23:43;;;;;;;31.08;25.95;;;18.90;99.90;;;;;;4961067;28;20039;-72
2022/08/27 01:26:13;;;;;;;32.05;24.83;;;18.90;99.90;;;;;;4969310;28;20476;-72
2022/08/27 01:28:41;;;;;;;28.17;25.35;;;18.80;99.90;;;;;;4971764;28;20124;-73
2022/08/27 01:31:11;;;;;;;26.83;23.98;;;18.70;99.90;;;;;;4966548;28;20324;-72
2022/08/27 01:33:38;;;;;;;28.20;25.30;;;18.60;99.90;;;;;;4969609;28;20042;-72
2022/08/27 01:36:05;;;;;;;31.83;26.35;;;18.60;99.90;;;;;;4970965;28;20109;-73
2022/08/27 01:38:32;;;;;;;32.67;24.58;;;18.60;99.90;;;;;;4973294;28;20050;-72
2022/08/27 01:41:00;;;;;;;32.20;26.10;;;18.60;99.90;;;;;;4971812;28;20119;-72
2022/08/27 01:43:29;;;;;;;32.72;25.30;;;18.50;99.90;;;;;;4968752;28;20080;-72
2022/08/27 01:45:57;;;;;;;34.75;25.20;;;18.40;99.90;;;;;;4967550;28;20588;-72
2022/08/27 01:48:24;;;;;;;34.15;25.60;;;18.40;99.90;;;;;;4967771;28;20425;-71
2022/08/27 01:50:50;;;;;;;32.58;26.17;;;18.40;99.90;;;;;;4953238;28;20069;-72
2022/08/27 01:53:22;;;;;;;36.92;27.90;;;18.40;99.90;;;;;;4966168;28;20050;-72
2022/08/27 01:55:50;;;;;;;38.85;27.48;;;18.40;99.90;;;;;;4968491;28;20163;-72
2022/08/27 01:58:19;;;;;;;30.20;27.10;;;18.30;99.90;;;;;;4970581;28;20096;-71
2022/08/27 02:00:51;;;;;;;39.33;26.63;;;18.30;99.90;;;;;;4967799;28;20042;-71
2022/08/27 02:03:23;;;;;;;37.58;27.75;;;18.30;99.90;;;;;;4967883;28;20039;-71
2022/08/27 02:05:50;;;;;;;38.08;25.73;;;18.10;99.90;;;;;;4969620;28;20566;-72
2022/08/27 02:08:17;;;;;;;41.60;28.50;;;18.20;99.90;;;;;;4964099;28;20077;-72
2022/08/27 02:10:46;;;;;;;42.92;26.77;;;18.10;99.90;;;;;;4970064;28;20456;-71
2022/08/27 02:13:13;;;;;;;37.80;27.15;;;18.10;99.90;;;;;;4965776;28;20419;-72
2022/08/27 02:15:42;;;;;;;38.35;26.50;;;18.20;99.90;;;;;;4957737;28;20567;-72
2022/08/27 02:18:09;;;;;;;47.83;27.63;;;18.20;99.90;;;;;;4967027;28;20077;-72
2022/08/27 02:20:36;;;;;;;42.80;26.77;;;18.20;99.90;;;;;;4969396;28;20133;-72
2022/08/27 02:23:05;;;;;;;43.33;28.33;;;18.10;99.90;;;;;;4969369;28;20101;-71
2022/08/27 02:25:32;;;;;;;43.72;28.65;;;18.10;99.90;;;;;;4961794;28;20516;-72
2022/08/27 02:27:59;;;;;;;49.63;31.38;;;18.00;99.90;;;;;;4965523;28;20046;-71
2022/08/27 02:30:28;;;;;;;43.58;28.58;;;18.00;99.90;;;;;;4963356;28;20039;-71
2022/08/27 02:32:55;;;;;;;43.03;27.23;;;18.00;99.90;;;;;;4970748;28;20501;-71
2022/08/27 02:35:23;;;;;;;53.92;31.48;;;18.00;99.90;;;;;;4970843;28;20489;-72
2022/08/27 02:37:50;;;;;;;41.88;30.63;;;18.10;99.90;;;;;;4976060;28;20038;-71
2022/08/27 02:40:20;;;;;;;52.55;31.17;;;18.00;99.90;;;;;;4972250;28;20058;-71
2022/08/27 02:42:48;;;;;;;43.08;29.20;;;18.10;99.90;;;;;;4974703;28;20042;-72
2022/08/27 02:45:16;;;;;;;45.35;29.70;;;18.10;99.90;;;;;;4973442;28;20101;-71
2022/08/27 02:47:43;;;;;;;44.85;30.58;;;18.00;99.90;;;;;;4962922;28;20069;-71
2022/08/27 02:50:12;;;;;;;40.05;28.08;;;17.90;99.90;;;;;;4966187;28;20057;-71
2022/08/27 02:52:39;;;;;;;38.58;27.83;;;17.80;99.90;;;;;;4971180;28;20050;-72
2022/08/27 02:55:06;;;;;;;50.58;28.23;;;17.80;99.90;;;;;;4952599;28;20062;-71
2022/08/27 02:57:43;;;;;;;40.90;27.88;;;17.70;99.90;;;;;;4973552;28;20054;-72
2022/08/27 03:00:13;;;;;;;38.60;27.70;;;17.70;99.90;;;;;;4971602;28;20263;-72
2022/08/27 03:02:40;;;;;;;36.45;27.73;;;17.70;99.90;;;;;;5001465;23;20092;-74
2022/08/27 03:05:07;;;;;;;47.25;29.05;;;17.70;99.90;;;;;;4997254;28;20084;-74
2022/08/27 03:07:36;;;;;;;40.58;28.00;;;17.60;99.90;;;;;;5019438;28;20157;-72
2022/08/27 03:10:04;;;;;;;51.65;28.38;;;17.60;99.90;;;;;;4998702;28;20104;-73
2022/08/27 03:12:32;;;;;;;40.05;27.05;;;17.60;99.90;;;;;;4981664;28;20045;-73
2022/08/27 03:14:58;;;;;;;42.10;29.63;;;17.60;99.90;;;;;;5006842;28;20045;-75
2022/08/27 03:20:11;;;;;;;39.67;28.20;;;17.70;99.90;;;;;;5006149;28;20432;-73
2022/08/27 03:22:39;;;;;;;44.92;27.85;;;17.80;99.90;;;;;;5014780;28;20052;-74
2022/08/27 03:25:07;;;;;;;42.95;29.08;;;17.90;99.90;;;;;;4997906;28;20072;-73
2022/08/27 03:27:34;;;;;;;43.45;29.17;;;17.90;99.90;;;;;;4994338;28;20455;-74
2022/08/27 03:30:03;;;;;;;45.40;28.67;;;17.80;99.90;;;;;;4999345;28;20107;-74
2022/08/27 03:32:30;;;;;;;46.00;29.95;;;17.80;99.90;;;;;;5000275;28;20276;-73
2022/08/27 03:34:58;;;;;;;38.92;26.30;;;17.70;99.90;;;;;;4999895;28;20703;-75
2022/08/27 03:37:25;;;;;;;43.25;28.63;;;17.70;99.90;;;;;;5015900;28;20728;-75
2022/08/27 03:39:52;;;;;;;39.45;26.90;;;17.70;99.90;;;;;;4991242;28;20390;-73
2022/08/27 03:42:20;;;;;;;42.08;26.75;;;17.70;99.90;;;;;;4997727;28;20037;-74
2022/08/27 03:44:47;;;;;;;40.92;26.02;;;17.60;99.90;;;;;;4998541;28;20041;-73
2022/08/27 03:47:14;;;;;;;42.47;27.13;;;17.50;99.90;;;;;;5004709;28;20294;-73
2022/08/27 03:49:41;;;;;;;43.75;27.58;;;17.60;99.90;;;;;;5009445;28;20046;-76
2022/08/27 03:52:08;;;;;;;43.72;28.08;;;17.50;99.90;;;;;;5013248;28;20103;-73
2022/08/27 03:54:36;;;;;;;47.60;29.60;;;17.60;99.90;;;;;;4989928;28;20049;-74
2022/08/27 03:57:04;;;;;;;46.03;29.45;;;17.50;99.90;;;;;;5011139;28;20482;-73
2022/08/27 03:59:34;;;;;;;52.40;29.98;;;17.50;99.90;;;;;;5014895;28;20481;-73
2022/08/27 04:02:01;;;;;;;43.42;28.70;;;17.40;99.90;;;;;;5013677;28;20122;-73
2022/08/27 04:04:29;;;;;;;53.38;30.08;;;17.30;99.90;;;;;;4981938;28;20613;-74
2022/08/27 04:06:57;;;;;;;48.22;29.40;;;17.40;99.90;;;;;;4993554;28;20041;-73
2022/08/27 04:09:25;;;;;;;47.20;28.33;;;17.50;99.90;;;;;;5018368;28;20045;-73
2022/08/27 04:11:52;;;;;;;35.95;25.75;;;17.40;99.90;;;;;;5038703;28;20037;-73
2022/08/27 04:14:19;;;;;;;40.63;25.73;;;17.40;99.90;;;;;;5028693;28;20042;-72
2022/08/27 04:16:57;;;;;;;54.38;26.85;;;17.40;99.90;;;;;;5018815;28;20128;-73
2022/08/27 04:19:26;;;;;;;43.70;27.27;;;17.50;99.90;;;;;;4998241;28;20100;-73
2022/08/27 04:21:59;;;;;;;42.47;25.27;;;17.50;99.90;;;;;;5010868;28;20503;-72
2022/08/27 04:24:26;;;;;;;37.90;25.65;;;17.50;99.90;;;;;;5010327;28;20095;-73
2022/08/27 04:26:53;;;;;;;36.45;24.58;;;17.50;99.90;;;;;;4994332;28;20275;-74
2022/08/27 04:29:20;;;;;;;37.53;23.50;;;17.50;99.90;;;;;;4995946;28;20454;-76
2022/08/27 04:31:47;;;;;;;39.28;26.40;;;17.50;99.90;;;;;;5016891;28;20331;-73
2022/08/27 04:34:15;;;;;;;42.92;27.38;;;17.40;99.90;;;;;;4992238;28;21119;-76
2022/08/27 04:36:42;;;;;;;40.97;26.35;;;17.30;99.90;;;;;;5017409;28;20408;-76
2022/08/27 04:39:09;;;;;;;47.85;27.63;;;17.20;99.90;;;;;;4997057;28;20563;-74
2022/08/27 04:41:36;;;;;;;40.15;26.05;;;17.20;99.90;;;;;;5017242;28;20065;-75
2022/08/27 04:44:08;;;;;;;45.45;26.88;;;17.10;99.90;;;;;;4976189;28;20045;-74
2022/08/27 04:46:39;;;;;;;36.95;25.35;;;17.20;99.90;;;;;;4993372;28;20702;-75
2022/08/27 04:49:10;;;;;;;41.35;26.77;;;17.20;99.90;;;;;;4997241;28;20076;-75
2022/08/27 04:51:38;;;;;;;43.03;26.30;;;17.20;99.90;;;;;;4993512;28;20030;-75
2022/08/27 04:54:07;;;;;;;50.53;26.20;;;17.30;99.90;;;;;;4995920;28;20492;-74
2022/08/27 04:56:35;;;;;;;39.40;25.60;;;17.20;99.90;;;;;;4992532;28;20235;-74
2022/08/27 04:59:05;;;;;;;42.92;26.50;;;17.20;99.90;;;;;;5009831;28;20049;-75
2022/08/27 05:01:32;;;;;;;44.83;26.67;;;17.30;99.90;;;;;;5004841;28;20045;-75
2022/08/27 05:03:59;;;;;;;58.22;26.38;;;17.20;99.90;;;;;;4973680;28;20053;-75
2022/08/27 05:06:26;;;;;;;45.88;26.73;;;17.20;99.90;;;;;;5015440;28;20091;-74
2022/08/27 05:08:53;;;;;;;41.05;25.15;;;17.10;99.90;;;;;;5016725;28;20053;-75
2022/08/27 05:11:22;;;;;;;40.83;25.83;;;17.20;99.90;;;;;;4989072;28;20049;-75
2022/08/27 05:13:49;;;;;;;51.63;28.25;;;17.30;99.90;;;;;;5017316;28;20065;-75
2022/08/27 05:16:19;;;;;;;41.75;27.33;;;17.30;99.90;;;;;;5013075;28;20843;-75
2022/08/27 05:18:47;;;;;;;42.92;26.13;;;17.30;99.90;;;;;;5011750;28;20051;-75
2022/08/27 05:21:24;;;;;;;42.70;25.88;;;17.30;99.90;;;;;;4995709;28;20103;-73
2022/08/27 05:23:53;;;;;;;39.63;27.63;;;17.20;99.90;;;;;;5011477;28;20049;-74
2022/08/27 05:26:20;;;;;;;43.22;26.40;;;17.30;99.90;;;;;;4995521;28;20057;-74
2022/08/27 05:28:47;;;;;;;41.22;27.70;;;17.30;99.90;;;;;;5013703;28;20475;-74
2022/08/27 05:31:15;;;;;;;42.33;27.02;;;17.20;99.90;;;;;;4993957;28;20317;-74
2022/08/27 05:33:42;;;;;;;43.75;26.58;;;17.30;99.90;;;;;;5012230;28;20042;-73
2022/08/27 05:36:25;;;;;;;42.40;26.58;;;17.20;99.90;;;;;;5012103;28;20046;-74
2022/08/27 05:38:53;;;;;;;42.47;25.77;;;17.20;99.90;;;;;;5012080;28;20045;-74
2022/08/27 05:41:26;;;;;;;34.38;25.15;;;17.10;99.90;;;;;;5006228;28;20119;-75
2022/08/27 05:44:03;;;;;;;43.22;26.52;;;17.10;99.90;;;;;;5013578;28;20140;-73
2022/08/27 05:46:50;;;;;;;42.33;25.00;;;17.10;99.90;;;;;;4980738;28;20065;-73
2022/08/27 05:49:17;;;;;;;44.17;26.95;;;17.10;99.90;;;;;;4993935;28;20038;-76
2022/08/27 05:51:43;;;;;;;39.28;25.63;;;17.10;99.90;;;;;;5011139;28;20099;-73
2022/08/27 05:54:17;;;;;;;38.63;25.23;;;17.10;99.90;;;;;;5006916;28;20133;-72
2022/08/27 05:56:45;;;;;;;38.80;25.42;;;17.00;99.90;;;;;;4988495;28;20069;-73
2022/08/27 06:02:00;;;;;;;36.42;24.45;;;17.10;99.90;;;;;;4992870;28;20447;-74
2022/08/27 06:04:27;;;;;;;43.10;24.48;;;17.10;99.90;;;;;;5008193;28;20044;-74
2022/08/27 06:06:54;;;;;;;36.25;25.48;;;17.10;99.90;;;;;;4998065;28;20057;-73
2022/08/27 06:09:23;;;;;;;38.10;25.60;;;17.10;99.90;;;;;;4998560;28;20041;-72
2022/08/27 06:11:53;;;;;;;37.75;25.48;;;17.00;99.90;;;;;;5001207;28;20045;-74
2022/08/27 06:14:19;;;;;;;32.92;25.25;;;17.00;99.90;;;;;;5015224;28;20087;-75
2022/08/27 06:16:47;;;;;;;35.83;24.92;;;17.20;99.90;;;;;;4996333;28;20128;-76
2022/08/27 06:19:14;;;;;;;37.47;23.75;;;17.10;99.90;;;;;;4992127;28;20507;-75
2022/08/27 06:21:41;;;;;;;34.88;24.52;;;17.10;99.90;;;;;;4993937;28;20131;-75
2022/08/27 06:24:11;;;;;;;37.65;23.90;;;17.10;99.90;;;;;;4992407;28;20635;-75
2022/08/27 06:26:39;;;;;;;35.10;23.65;;;17.10;99.90;;;;;;5014952;28;20431;-74
2022/08/27 06:29:08;;;;;;;34.92;23.52;;;17.20;99.90;;;;;;5007945;28;20049;-75
2022/08/27 06:31:36;;;;;;;34.03;21.92;;;17.10;99.90;;;;;;5011695;28;20033;-72
2022/08/27 06:34:07;;;;;;;29.25;21.30;;;17.10;99.90;;;;;;4998930;28;20041;-73
2022/08/27 06:36:41;;;;;;;33.20;23.48;;;17.10;99.90;;;;;;5000963;28;20061;-73
2022/08/27 06:39:12;;;;;;;36.17;21.95;;;17.20;99.90;;;;;;5017028;28;20102;-73
2022/08/27 06:41:41;;;;;;;31.75;22.50;;;17.20;99.90;;;;;;4995682;28;20049;-76
2022/08/27 06:44:12;;;;;;;31.48;20.85;;;17.30;99.90;;;;;;4991347;28;20050;-75
2022/08/27 06:46:39;;;;;;;24.30;19.15;;;17.40;99.90;;;;;;4998854;28;20117;-75
2022/08/27 06:49:06;;;;;;;26.38;19.25;;;17.40;99.90;;;;;;5017233;28;20045;-74
2022/08/27 06:51:36;;;;;;;26.17;18.00;;;17.30;99.90;;;;;;5018421;28;20507;-75
2022/08/27 06:54:05;;;;;;;32.05;20.45;;;17.30;99.90;;;;;;4998577;28;20053;-73
2022/08/27 06:56:32;;;;;;;31.40;20.00;;;17.30;99.90;;;;;;5018194;28;20119;-74
2022/08/27 06:59:02;;;;;;;24.80;18.55;;;17.40;99.90;;;;;;5018177;28;20401;-73
2022/08/27 07:01:33;;;;;;;25.05;18.85;;;17.50;99.90;;;;;;5010408;28;20115;-74
2022/08/27 07:04:04;;;;;;;25.60;20.25;;;17.50;99.90;;;;;;5018033;28;20042;-73
2022/08/27 07:06:32;;;;;;;26.23;19.25;;;17.30;99.90;;;;;;4999178;28;20051;-73
2022/08/27 07:08:59;;;;;;;32.22;20.02;;;17.30;99.90;;;;;;5003793;28;20099;-72
2022/08/27 07:11:28;;;;;;;27.95;19.40;;;17.40;99.90;;;;;;5009869;28;20593;-76
2022/08/27 07:13:55;;;;;;;36.47;20.67;;;17.40;99.90;;;;;;5018772;28;20595;-73
2022/08/27 07:16:24;;;;;;;29.05;19.65;;;17.40;99.90;;;;;;4997913;28;20037;-75
2022/08/27 07:18:53;;;;;;;21.27;17.50;;;17.40;99.90;;;;;;5013030;28;20467;-74
2022/08/27 07:21:20;;;;;;;26.63;18.85;;;17.40;99.90;;;;;;4998324;28;20057;-74
2022/08/27 07:23:50;;;;;;;27.15;19.23;;;17.30;99.90;;;;;;5023841;28;20038;-74
2022/08/27 07:26:19;;;;;;;24.48;17.38;;;17.30;99.90;;;;;;5023910;28;20558;-75
2022/08/27 07:28:46;;;;;;;23.05;17.40;;;17.40;99.90;;;;;;5011970;28;20087;-75
2022/08/27 07:31:18;;;;;;;30.05;17.92;;;17.50;99.90;;;;;;5015250;28;20562;-73
2022/08/27 07:33:46;;;;;;;18.60;16.67;;;17.50;99.90;;;;;;4998291;28;20416;-76
2022/08/27 07:36:21;;;;;;;23.05;18.35;;;17.50;99.90;;;;;;5014169;28;20076;-72
2022/08/27 07:38:51;;;;;;;25.40;18.30;;;17.50;99.90;;;;;;4998170;28;20123;-73
2022/08/27 07:41:31;;;;;;;26.13;18.38;;;17.50;99.90;;;;;;4994312;28;20088;-73
2022/08/27 07:46:57;;;;;;;22.02;17.85;;;17.30;99.90;;;;;;5001537;28;20042;-71
2022/08/27 07:49:26;;;;;;;19.13;17.08;;;17.20;99.90;;;;;;5012861;28;20076;-72
2022/08/27 07:51:53;;;;;;;23.77;17.27;;;17.30;99.90;;;;;;4998636;28;20037;-75
2022/08/27 07:54:21;;;;;;;21.98;16.42;;;17.20;99.90;;;;;;4989994;28;20053;-74
2022/08/27 07:56:48;;;;;;;21.42;16.40;;;17.30;99.90;;;;;;5014547;28;20041;-73
2022/08/27 07:59:23;;;;;;;20.92;16.58;;;17.30;99.90;;;;;;5014181;28;20507;-73
2022/08/27 08:01:50;;;;;;;17.77;15.93;;;17.40;99.90;;;;;;5012633;28;20092;-73
2022/08/27 08:04:17;;;;;;;22.73;15.20;;;17.30;99.90;;;;;;4995590;28;20113;-74
2022/08/27 08:06:46;;;;;;;25.05;15.82;;;17.30;99.90;;;;;;5016939;28;20041;-73
2022/08/27 08:09:13;;;;;;;23.73;15.43;;;17.30;99.90;;;;;;5015166;28;20057;-74
2022/08/27 08:11:40;;;;;;;16.83;14.70;;;17.50;99.90;;;;;;4997134;28;20121;-74
2022/08/27 08:14:07;;;;;;;18.48;15.95;;;17.70;99.90;;;;;;5012855;28;20136;-74
2022/08/27 08:16:33;;;;;;;23.08;17.48;;;17.60;99.90;;;;;;5018061;28;20068;-74
2022/08/27 08:19:00;;;;;;;18.50;16.90;;;17.80;99.90;;;;;;4998741;28;20049;-71
2022/08/27 08:21:27;;;;;;;19.48;17.42;;;17.80;99.90;;;;;;5009700;28;20053;-74
2022/08/27 08:23:54;;;;;;;20.88;17.75;;;18.00;99.90;;;;;;4993853;28;20116;-74
2022/08/27 08:26:22;;;;;;;20.60;17.88;;;18.10;99.90;;;;;;5008376;28;20045;-74
2022/08/27 08:28:48;;;;;;;20.58;17.67;;;18.20;99.90;;;;;;4999608;28;20332;-75
2022/08/27 08:31:15;;;;;;;22.95;18.02;;;18.30;99.90;;;;;;5012555;28;20041;-73
2022/08/27 08:33:42;;;;;;;22.05;17.75;;;18.50;99.90;;;;;;4996746;28;20133;-76
2022/08/27 08:36:11;;;;;;;21.10;18.30;;;18.70;99.90;;;;;;5014168;28;20129;-73
2022/08/27 08:38:39;;;;;;;18.60;16.95;;;18.80;99.90;;;;;;5013388;28;20496;-73
2022/08/27 08:41:46;;;;;;;19.67;17.98;;;19.00;99.90;;;;;;4985868;28;21544;-73
2022/08/27 08:44:31;;;;;;;21.60;19.10;;;19.00;99.90;;;;;;4953382;28;20046;-73
2022/08/27 08:47:10;;;;;;;22.63;20.13;;;19.00;99.90;;;;;;4995388;28;20659;-76
2022/08/27 08:49:54;;;;;;;22.40;18.42;;;19.00;99.90;;;;;;5015195;28;20546;-74
2022/08/27 08:52:33;;;;;;;24.17;20.35;;;19.00;99.90;;;;;;4995607;28;20049;-73
2022/08/27 08:55:37;;;;;;;22.17;20.15;;;19.10;99.90;;;;;;4985252;28;20046;-74
2022/08/27 08:58:23;;;;;;;22.20;20.15;;;18.90;99.90;;;;;;5005369;28;20046;-74
2022/08/27 09:00:55;;;;;;;21.08;19.48;;;18.90;99.90;;;;;;4996553;28;20049;-73
2022/08/27 09:06:12;;;;;;;22.48;20.15;;;18.90;99.90;;;;;;5009205;28;20041;-72
2022/08/27 09:08:41;;;;;;;22.15;20.00;;;19.00;99.90;;;;;;5012782;28;20123;-73
2022/08/27 09:11:42;;;;;;;21.10;19.15;;;19.10;99.90;;;;;;5002614;28;20041;-73
2022/08/27 09:14:25;;;;;;;22.27;20.42;;;19.20;99.90;;;;;;5016964;28;20049;-72
2022/08/27 09:16:52;;;;;;;21.50;19.75;;;19.10;99.90;;;;;;5032700;28;20052;-73
2022/08/27 09:19:22;;;;;;;19.95;18.50;;;19.00;99.90;;;;;;5031746;28;20041;-72
2022/08/27 09:22:13;;;;;;;23.35;18.67;;;19.00;99.90;;;;;;5018786;28;20137;-72
2022/08/27 09:24:52;;;;;;;21.33;19.25;;;19.00;99.90;;;;;;5025599;28;20128;-72
2022/08/27 09:27:21;;;;;;;21.15;19.45;;;19.30;99.90;;;;;;5028840;28;20686;-72
2022/08/27 09:29:52;;;;;;;21.10;19.00;;;19.40;99.90;;;;;;5003594;28;20037;-72
2022/08/27 09:32:24;;;;;;;22.35;20.55;;;19.50;99.90;;;;;;5029767;28;20103;-74
2022/08/27 09:34:55;;;;;;;21.48;19.70;;;19.60;99.90;;;;;;5029280;28;20075;-72
2022/08/27 09:37:26;;;;;;;21.08;18.67;;;19.70;99.90;;;;;;5015153;28;20038;-73
2022/08/27 09:40:18;;;;;;;21.58;20.08;;;19.80;99.90;;;;;;5014250;28;20095;-74
2022/08/27 09:42:52;;;;;;;21.88;19.95;;;19.90;99.90;;;;;;5026704;28;20056;-74
2022/08/27 09:45:26;;;;;;;22.52;20.73;;;20.00;99.90;;;;;;5018370;28;20199;-75
2022/08/27 09:48:16;;;;;;;22.02;20.02;;;20.10;99.90;;;;;;5033319;28;20064;-74
2022/08/27 09:50:53;;;;;;;20.85;19.35;;;20.00;99.90;;;;;;5018173;28;20096;-74
2022/08/27 09:53:27;;;;;;;21.70;19.88;;;20.10;99.90;;;;;;5009360;28;20087;-72
2022/08/27 09:55:58;;;;;;;21.98;19.98;;;20.10;99.90;;;;;;5012610;28;20487;-74
2022/08/27 09:58:52;;;;;;;22.80;20.83;;;20.10;99.90;;;;;;5009410;28;20333;-72
2022/08/27 10:01:26;;;;;;;21.90;20.10;;;20.10;99.90;;;;;;5002575;28;20431;-72
2022/08/27 10:04:14;;;;;;;21.25;19.80;;;19.80;99.90;;;;;;5031377;28;20049;-72
2022/08/27 10:06:49;;;;;;;20.75;19.17;;;19.90;99.90;;;;;;4995991;28;20136;-72
2022/08/27 10:09:22;;;;;;;;;;;20.10;99.90;;;;;;5002701;28;20045;-72
2022/08/27 10:12:02;;;;;;;21.13;19.27;;;20.30;99.90;;;;;;5001642;28;19925;-72
2022/08/27 10:14:37;;;;;;;21.55;19.75;;;20.40;99.90;;;;;;5012234;28;20363;-72
2022/08/27 10:17:19;;;;;;;21.20;19.58;;;20.60;99.90;;;;;;5010395;28;20048;-72
2022/08/27 10:20:18;;;;;;;22.15;20.33;;;20.80;99.90;;;;;;5010432;28;20479;-72
2022/08/27 10:23:20;;;;;;;22.05;20.45;;;21.00;99.90;;;;;;4980025;28;20471;-72
2022/08/27 10:26:08;;;;;;;21.48;20.08;;;21.00;99.90;;;;;;5015910;28;20068;-72
2022/08/27 10:29:22;;;;;;;22.58;20.95;;;21.00;99.90;;;;;;5012655;28;20057;-72
2022/08/27 10:32:06;;;;;;;21.95;20.38;;;21.00;99.90;;;;;;4972368;28;20081;-72
2022/08/27 10:35:19;;;;;;;21.02;19.33;;;21.50;99.90;;;;;;5007904;28;20046;-72
2022/08/27 10:37:59;;;;;;;20.73;19.40;;;21.90;99.90;;;;;;4894868;29;20060;-72
2022/08/27 10:40:51;;;;;;;21.95;20.30;;;21.60;99.90;;;;;;4922254;28;20574;-72
2022/08/27 10:43:32;;;;;;;21.88;20.10;;;21.00;99.90;;;;;;4990074;28;20184;-72
2022/08/27 10:46:02;;;;;;;21.77;20.08;;;21.00;99.90;;;;;;5007114;28;20037;-72
2022/08/27 10:48:36;;;;;;;20.25;18.95;;;20.90;99.90;;;;;;5011961;28;20593;-74
2022/08/27 10:51:12;;;;;;;22.58;20.70;;;20.90;99.90;;;;;;5006410;28;20132;-73
2022/08/27 10:54:09;;;;;;;21.58;20.10;;;20.90;99.90;;;;;;5025032;28;20068;-73
2022/08/27 10:57:16;;;;;;;21.13;19.73;;;20.70;99.90;;;;;;4994446;28;20076;-73
2022/08/27 11:00:30;;;;;;;20.92;19.80;;;20.90;99.90;;;;;;4997724;28;20126;-73
2022/08/27 11:03:30;;;;;;;22.55;20.77;;;21.00;99.90;;;;;;5019674;28;20474;-73
2022/08/27 11:06:08;;;;;;;22.40;20.90;;;21.40;99.90;;;;;;5007285;28;20044;-72
2022/08/27 11:08:39;;;;;;;22.65;21.10;;;21.70;99.90;;;;;;4994574;28;20499;-75
2022/08/27 11:11:24;;;;;;;22.65;20.88;;;21.70;99.90;;;;;;5006399;28;20495;-73
2022/08/27 11:14:27;;;;;;;21.27;20.02;;;21.40;99.90;;;;;;5029776;28;20538;-73
2022/08/27 11:17:02;;;;;;;20.92;19.65;;;21.00;99.90;;;;;;5032842;28;20088;-73
2022/08/27 11:19:55;;;;;;;22.33;20.70;;;20.70;99.90;;;;;;5031860;28;20037;-72
2022/08/27 11:22:54;;;;;;;21.58;19.98;;;20.60;99.90;;;;;;5011724;28;20037;-72
2022/08/27 11:25:21;;;;;;;21.02;19.55;;;20.40;99.90;;;;;;5006926;28;20048;-72
2022/08/27 11:27:50;;;;;;;21.40;19.80;;;20.30;99.90;;;;;;5022799;28;20053;-74
2022/08/27 11:30:37;;;;;;;20.60;19.05;;;20.10;99.90;;;;;;5031949;28;20080;-74
2022/08/27 11:33:38;;;;;;;19.98;18.55;;;20.00;99.90;;;;;;5013744;28;20045;-73
2022/08/27 11:36:25;;;;;;;19.58;18.20;;;19.80;99.90;;;;;;4941916;28;20516;-72
2022/08/27 11:39:12;;;;;;;20.88;19.25;;;19.50;99.90;;;;;;5017460;28;20041;-73
2022/08/27 11:42:00;;;;;;;21.17;19.58;;;19.20;99.90;;;;;;5025597;28;20044;-72
2022/08/27 11:44:27;;;;;;;21.65;20.33;;;19.00;99.90;;;;;;5023574;28;20375;-73
2022/08/27 11:47:15;;;;;;;20.83;19.45;;;18.90;99.90;;;;;;5012405;28;20049;-73
2022/08/27 11:49:47;;;;;;;20.90;19.00;;;18.90;99.90;;;;;;4994270;28;20042;-73
2022/08/27 11:52:25;;;;;;;20.73;19.15;;;19.00;99.90;;;;;;5023732;28;20131;-74
2022/08/27 11:55:15;;;;;;;21.15;19.65;;;19.20;99.90;;;;;;5016205;28;20372;-73
2022/08/27 11:57:43;;;;;;;19.45;18.25;;;19.30;99.90;;;;;;5020449;28;20049;-72
2022/08/27 12:00:25;;;;;;;20.48;19.10;;;19.10;99.90;;;;;;5022572;28;20073;-73
2022/08/27 12:03:22;;;;;;;19.83;18.52;;;18.90;99.90;;;;;;5021901;28;20141;-72
2022/08/27 12:05:52;;;;;;;20.52;18.75;;;18.90;99.90;;;;;;5025278;28;20049;-72
2022/08/27 12:08:21;;;;;;;19.48;18.00;;;19.00;99.90;;;;;;5033262;28;21329;-72
2022/08/27 12:11:10;;;;;;;19.92;18.35;;;18.90;99.90;;;;;;5013014;28;20060;-72
2022/08/27 12:13:48;;;;;;;21.23;19.58;;;18.90;99.90;;;;;;5029547;28;20041;-72
2022/08/27 12:16:34;;;;;;;20.65;19.15;;;19.10;99.90;;;;;;5017125;28;20061;-73
2022/08/27 12:19:04;;;;;;;20.52;19.00;;;19.20;99.90;;;;;;5007554;28;20033;-73
2022/08/27 12:21:42;;;;;;;20.65;19.17;;;19.30;99.90;;;;;;4991465;28;20041;-72
2022/08/27 12:24:35;;;;;;;19.70;18.40;;;19.20;99.90;;;;;;5020336;28;20712;-74
2022/08/27 12:27:20;;;;;;;20.80;19.25;;;19.40;99.90;;;;;;5008113;28;20045;-74
2022/08/27 12:29:51;;;;;;;20.40;18.95;;;19.50;99.90;;;;;;5026198;28;20053;-74
2022/08/27 12:32:17;;;;;;;20.40;19.02;;;19.50;99.90;;;;;;5013924;28;20041;-73
2022/08/27 12:35:02;;;;;;;20.30;18.58;;;19.30;99.90;;;;;;5036441;28;20577;-73
2022/08/27 12:37:34;;;;;;;23.67;21.65;;;19.30;99.90;;;;;;5039158;28;20098;-73
2022/08/27 12:40:10;;;;;;;22.85;21.33;;;19.20;99.90;;;;;;5045542;28;20090;-73
2022/08/27 12:42:37;;;;;;;23.30;21.58;;;19.20;99.90;;;;;;5025786;28;20522;-72
2022/08/27 12:45:04;;;;;;;22.80;21.05;;;19.20;99.90;;;;;;5036551;28;20152;-72
2022/08/27 12:47:39;;;;;;;21.92;20.13;;;19.00;99.90;;;;;;5030210;28;20432;-74
2022/08/27 12:50:11;;;;;;;22.90;21.25;;;18.90;99.90;;;;;;5006184;28;20041;-73
2022/08/27 12:52:58;;;;;;;22.50;20.77;;;18.90;99.90;;;;;;5014070;28;20041;-73
2022/08/27 12:55:52;;;;;;;21.92;20.23;;;18.70;99.90;;;;;;5024982;28;20504;-73
2022/08/27 12:58:33;;;;;;;22.90;20.92;;;18.70;99.90;;;;;;5020431;28;20546;-73
2022/08/27 13:01:19;;;;;;;22.05;20.45;;;18.70;99.90;;;;;;5014683;28;20052;-73
2022/08/27 13:03:50;;;;;;;21.27;19.38;;;18.70;99.90;;;;;;5024052;28;20141;-73
2022/08/27 13:06:23;;;;;;;21.13;19.48;;;18.60;99.90;;;;;;5020064;28;20041;-73
2022/08/27 13:08:55;;;;;;;20.90;19.08;;;18.70;99.90;;;;;;5015660;28;20044;-73